Terminal Aerodrome Forecast
Issued by NWS Charleston, WV

Current Version | Previous Version | Text Only | Print | Product List | Glossary Off
Versions: 1 2 3 4 5 6 7 8 9 10 11 12 13 14 15 16 17 18 19 20 21 22

000
FTUS41 KRLX 170800 AAA
TAFBKW
TAF AMD
KBKW 170858Z 1709/1806 13013G20KT P6SM SKC
     FM171500 14009KT P6SM SKC=

USA.gov is the U.S. government's official web portal to all federal, state and local government web resources and services.